createdAt,value
2024-02-16T00:02:02.587Z,13.30
2024-02-16T00:04:29.539Z,13.30
2024-02-16T00:06:56.791Z,13.30
2024-02-16T00:09:23.723Z,13.30
2024-02-16T00:11:51.890Z,13.30
2024-02-16T00:14:18.834Z,13.30
2024-02-16T00:16:45.744Z,13.30
2024-02-16T00:19:12.730Z,13.30
2024-02-16T00:21:43.130Z,13.40
2024-02-16T00:24:10.433Z,13.40
2024-02-16T00:26:38.030Z,13.40
2024-02-16T00:29:05.781Z,13.40
2024-02-16T00:31:32.764Z,13.40
2024-02-16T00:33:59.976Z,13.40
2024-02-16T00:36:31.608Z,13.40
2024-02-16T00:38:59.613Z,13.40
2024-02-16T00:41:27.221Z,13.50
2024-02-16T00:43:54.148Z,13.50
2024-02-16T00:46:21.101Z,13.50
2024-02-16T00:48:48.549Z,13.50
2024-02-16T00:51:15.543Z,13.50
2024-02-16T00:53:42.466Z,13.50
2024-02-16T00:56:09.815Z,13.50
2024-02-16T00:58:37.527Z,13.50
2024-02-16T01:01:05.112Z,13.50
2024-02-16T01:03:32.055Z,13.50
2024-02-16T01:05:58.973Z,13.50
2024-02-16T01:08:25.842Z,13.60
2024-02-16T01:10:52.716Z,13.60
2024-02-16T01:13:19.490Z,13.50
2024-02-16T01:15:46.257Z,13.50
2024-02-16T01:18:13.111Z,13.50
2024-02-16T01:20:39.958Z,13.50
2024-02-16T01:23:06.718Z,13.50
2024-02-16T01:25:33.763Z,13.50
2024-02-16T01:28:00.539Z,13.50
2024-02-16T01:30:27.406Z,13.40
2024-02-16T01:32:54.367Z,13.40
2024-02-16T01:35:21.297Z,13.40
2024-02-16T01:37:49.066Z,13.40
2024-02-16T01:40:18.256Z,13.40
2024-02-16T01:42:45.302Z,13.40
2024-02-16T01:45:15.116Z,13.30
2024-02-16T01:47:43.960Z,13.30
2024-02-16T01:50:11.361Z,13.30
2024-02-16T01:52:38.174Z,13.20
2024-02-16T01:55:05.993Z,13.20
2024-02-16T01:57:33.090Z,13.10
2024-02-16T02:00:00.136Z,13.20
2024-02-16T02:02:28.614Z,13.20
2024-02-16T02:04:55.862Z,13.10
2024-02-16T02:07:27.466Z,13.10
2024-02-16T02:09:54.619Z,13.10
2024-02-16T02:12:21.882Z,13.00
2024-02-16T02:14:48.801Z,13.00
2024-02-16T02:17:15.816Z,13.00
2024-02-16T02:19:42.779Z,12.90
2024-02-16T02:22:19.462Z,12.90
2024-02-16T02:24:46.747Z,12.90
2024-02-16T02:27:16.874Z,12.80
2024-02-16T02:29:43.831Z,12.80
2024-02-16T02:32:10.920Z,12.80
2024-02-16T02:34:38.020Z,12.90
2024-02-16T02:37:07.837Z,12.80
2024-02-16T02:39:34.647Z,12.90
2024-02-16T02:42:01.595Z,12.80
2024-02-16T02:44:28.469Z,12.90
2024-02-16T02:46:55.406Z,12.80
2024-02-16T02:49:22.431Z,12.70
2024-02-16T02:51:49.242Z,12.80
2024-02-16T02:54:16.170Z,12.70
2024-02-16T02:56:43.727Z,12.70
2024-02-16T02:59:11.774Z,12.60
2024-02-16T03:01:38.637Z,12.60
2024-02-16T03:04:05.682Z,12.70
2024-02-16T03:06:32.633Z,12.60
2024-02-16T03:08:59.530Z,12.70
2024-02-16T03:11:26.908Z,12.60
2024-02-16T03:13:54.357Z,12.60
2024-02-16T03:16:21.146Z,12.60
2024-02-16T03:18:48.110Z,12.60
2024-02-16T03:21:18.636Z,12.60
2024-02-16T03:23:45.804Z,12.60
2024-02-16T03:26:19.942Z,12.60
2024-02-16T03:28:48.360Z,12.60
2024-02-16T03:31:22.026Z,12.60
2024-02-16T03:33:50.072Z,12.60
2024-02-16T03:36:17.513Z,12.60
2024-02-16T03:38:48.301Z,12.50
2024-02-16T03:41:15.871Z,12.60
2024-02-16T03:43:43.953Z,12.60
2024-02-16T03:46:11.058Z,12.50
2024-02-16T03:48:38.165Z,12.50
2024-02-16T03:51:05.308Z,12.50
2024-02-16T03:53:32.101Z,12.50
2024-02-16T03:55:58.928Z,12.50
2024-02-16T03:58:25.786Z,12.50
2024-02-16T04:00:55.224Z,12.50
2024-02-16T04:03:22.145Z,12.40
2024-02-16T04:05:49.339Z,12.30
2024-02-16T04:08:16.224Z,12.30
2024-02-16T04:10:43.286Z,12.20
2024-02-16T04:13:10.202Z,12.10
2024-02-16T04:15:37.125Z,12.10
2024-02-16T04:18:04.377Z,12.00
2024-02-16T04:20:31.638Z,12.10
2024-02-16T04:22:58.422Z,12.10
2024-02-16T04:25:25.217Z,12.00
2024-02-16T04:27:52.122Z,12.00
2024-02-16T04:30:19.054Z,11.90
2024-02-16T04:32:45.933Z,11.90
2024-02-16T04:35:21.683Z,11.80
2024-02-16T04:37:48.490Z,11.80
2024-02-16T04:40:15.448Z,11.80
2024-02-16T04:42:42.451Z,11.80
2024-02-16T04:45:12.401Z,11.70
2024-02-16T04:47:39.663Z,11.70
2024-02-16T04:50:10.959Z,11.70
2024-02-16T04:52:39.122Z,11.60
2024-02-16T04:55:06.817Z,11.60
2024-02-16T04:57:34.996Z,11.70
2024-02-16T05:00:01.972Z,11.70
2024-02-16T05:02:28.844Z,11.60
2024-02-16T05:04:55.610Z,11.60
2024-02-16T05:07:22.585Z,11.60
2024-02-16T05:09:50.880Z,11.60
2024-02-16T05:12:20.082Z,11.60
2024-02-16T05:14:50.486Z,11.60
2024-02-16T05:17:17.577Z,11.60
2024-02-16T05:19:44.376Z,11.60
2024-02-16T05:22:11.160Z,11.60
2024-02-16T05:24:38.181Z,11.60
2024-02-16T05:27:05.263Z,11.60
2024-02-16T05:29:32.048Z,11.60
2024-02-16T05:31:58.858Z,11.60
2024-02-16T05:34:26.200Z,11.60
2024-02-16T05:36:53.092Z,11.60
2024-02-16T05:39:28.046Z,11.60
2024-02-16T05:41:55.163Z,11.60
2024-02-16T05:44:22.063Z,11.50
2024-02-16T05:46:49.038Z,11.50
2024-02-16T05:49:17.457Z,11.60
2024-02-16T05:52:02.552Z,11.50
2024-02-16T05:54:29.744Z,11.50
2024-02-16T05:56:56.763Z,11.50
2024-02-16T05:59:23.628Z,11.40
2024-02-16T06:01:50.336Z,11.40
2024-02-16T06:04:17.650Z,11.30
2024-02-16T06:06:44.579Z,11.30
2024-02-16T06:09:11.465Z,11.30
2024-02-16T06:11:40.131Z,11.30
2024-02-16T06:14:07.024Z,11.30
2024-02-16T06:16:34.283Z,11.20
2024-02-16T06:19:01.368Z,11.20
2024-02-16T06:21:28.398Z,11.20
2024-02-16T06:23:55.365Z,11.20
2024-02-16T06:26:22.148Z,11.20
2024-02-16T06:28:49.033Z,11.20
2024-02-16T06:31:15.876Z,11.20
2024-02-16T06:33:42.831Z,11.20
2024-02-16T06:36:11.101Z,11.20
2024-02-16T06:38:40.853Z,11.10
2024-02-16T06:41:07.696Z,11.10
2024-02-16T06:43:34.692Z,11.10
2024-02-16T06:46:01.562Z,11.10
2024-02-16T06:48:28.422Z,11.10
2024-02-16T06:50:55.472Z,11.10
2024-02-16T06:53:22.720Z,11.10
2024-02-16T06:55:49.904Z,11.10
2024-02-16T06:58:16.755Z,11.10
2024-02-16T07:00:43.842Z,11.00
2024-02-16T07:03:10.733Z,11.10
2024-02-16T07:05:37.836Z,11.00
2024-02-16T07:08:07.636Z,11.00
2024-02-16T07:10:34.932Z,11.00
2024-02-16T07:13:02.182Z,11.00
2024-02-16T07:15:29.407Z,10.90
2024-02-16T07:17:56.333Z,10.90
2024-02-16T07:20:23.404Z,10.90
2024-02-16T07:22:52.558Z,10.90
2024-02-16T07:25:19.390Z,10.90
2024-02-16T07:27:46.229Z,10.90
2024-02-16T07:30:16.871Z,10.90
2024-02-16T07:32:51.815Z,10.90
2024-02-16T07:35:21.983Z,10.90
2024-02-16T07:37:52.968Z,10.90
2024-02-16T07:40:19.826Z,10.80
2024-02-16T07:42:47.015Z,10.80
2024-02-16T07:45:13.898Z,10.80
2024-02-16T07:47:43.542Z,10.70
2024-02-16T07:50:10.857Z,10.70
2024-02-16T07:52:38.968Z,10.70
2024-02-16T07:55:07.001Z,10.60
2024-02-16T07:57:33.936Z,10.60
2024-02-16T08:00:00.761Z,10.60
2024-02-16T08:02:27.563Z,10.60
2024-02-16T08:04:54.368Z,10.60
2024-02-16T08:07:24.444Z,10.60
2024-02-16T08:09:51.301Z,10.60
2024-02-16T08:12:18.167Z,10.60
2024-02-16T08:14:46.120Z,10.60
2024-02-16T08:17:19.415Z,10.60
2024-02-16T08:19:52.868Z,10.60
2024-02-16T08:22:19.672Z,10.60
2024-02-16T08:24:47.467Z,10.50
2024-02-16T08:27:16.952Z,10.50
2024-02-16T08:29:44.604Z,10.50
2024-02-16T08:32:11.708Z,10.50
2024-02-16T08:34:38.962Z,10.50
2024-02-16T08:37:06.590Z,10.50
2024-02-16T08:39:35.931Z,10.50
2024-02-16T08:42:04.357Z,10.50
2024-02-16T08:44:31.395Z,10.40
2024-02-16T08:46:58.302Z,10.40
2024-02-16T08:49:25.154Z,10.40
2024-02-16T08:51:52.178Z,10.30
2024-02-16T08:54:19.705Z,10.30
2024-02-16T08:56:49.311Z,10.40
2024-02-16T08:59:16.194Z,10.40
2024-02-16T09:01:44.083Z,10.40
2024-02-16T09:04:11.212Z,10.50
2024-02-16T09:06:39.829Z,10.40
2024-02-16T09:09:08.793Z,10.40
2024-02-16T09:11:35.681Z,10.40
2024-02-16T09:14:02.478Z,10.50
2024-02-16T09:16:29.278Z,10.60
2024-02-16T09:18:56.249Z,10.80
2024-02-16T09:21:25.224Z,10.70
2024-02-16T09:23:52.146Z,10.80
2024-02-16T09:26:19.310Z,10.80
2024-02-16T09:28:46.267Z,10.80
2024-02-16T09:31:16.419Z,10.80
2024-02-16T09:33:43.348Z,10.80
2024-02-16T09:36:10.596Z,10.80
2024-02-16T09:38:37.501Z,10.70
2024-02-16T09:41:04.714Z,10.70
2024-02-16T09:43:31.648Z,10.80
2024-02-16T09:45:59.348Z,10.90
2024-02-16T09:48:28.308Z,11.00
2024-02-16T09:50:56.784Z,11.00
2024-02-16T09:53:28.396Z,11.00
2024-02-16T09:55:55.399Z,11.00
2024-02-16T09:58:22.350Z,11.00
2024-02-16T10:00:58.812Z,11.00
2024-02-16T10:03:30.876Z,11.10
2024-02-16T10:06:11.262Z,11.10
2024-02-16T10:08:53.870Z,11.20
2024-02-16T10:11:23.170Z,11.20
2024-02-16T10:14:04.206Z,11.20
2024-02-16T10:16:31.831Z,11.30
2024-02-16T10:19:05.526Z,11.30
2024-02-16T10:21:32.582Z,11.40
2024-02-16T10:24:02.041Z,11.50
2024-02-16T10:26:29.640Z,11.50
2024-02-16T10:29:00.051Z,11.50
2024-02-16T10:31:30.961Z,11.50
2024-02-16T10:34:03.187Z,11.60
2024-02-16T10:36:30.273Z,11.50
2024-02-16T10:38:57.802Z,11.50
2024-02-16T10:41:29.178Z,11.40
2024-02-16T10:43:56.348Z,11.50
2024-02-16T10:46:24.433Z,11.60
2024-02-16T10:48:51.823Z,11.60
2024-02-16T10:51:34.860Z,11.60
2024-02-16T10:54:01.753Z,11.60
2024-02-16T10:56:38.876Z,11.60
2024-02-16T10:59:06.675Z,11.60
2024-02-16T11:01:43.443Z,11.50
2024-02-16T11:04:16.965Z,11.60
2024-02-16T11:06:50.818Z,11.70
2024-02-16T11:09:31.003Z,11.70
2024-02-16T11:12:01.762Z,11.80
2024-02-16T11:14:41.595Z,11.80
2024-02-16T11:17:23.510Z,11.90
2024-02-16T11:19:51.089Z,12.00
2024-02-16T11:22:19.284Z,12.00
2024-02-16T11:24:47.796Z,12.00
2024-02-16T11:27:22.729Z,12.00
2024-02-16T11:29:50.305Z,12.00
2024-02-16T11:32:17.215Z,12.00
2024-02-16T11:34:44.554Z,12.10
2024-02-16T11:37:11.585Z,12.20
2024-02-16T11:39:39.571Z,12.30
2024-02-16T11:42:13.209Z,12.20
2024-02-16T11:44:41.225Z,12.30
2024-02-16T11:47:16.148Z,12.30
2024-02-16T11:49:43.077Z,12.40
2024-02-16T11:52:09.917Z,12.60
2024-02-16T11:54:38.029Z,12.70
2024-02-16T11:57:05.722Z,12.70
2024-02-16T11:59:32.723Z,12.60
2024-02-16T12:01:59.946Z,12.60
2024-02-16T12:04:30.453Z,12.60
2024-02-16T12:07:05.726Z,12.60
2024-02-16T12:09:36.709Z,12.70
2024-02-16T12:12:04.465Z,12.70
2024-02-16T12:14:31.407Z,12.70
2024-02-16T12:16:59.101Z,12.70
2024-02-16T12:19:26.169Z,12.60
2024-02-16T12:21:53.578Z,12.70
2024-02-16T12:24:21.351Z,12.70
2024-02-16T12:26:48.317Z,12.80
2024-02-16T12:29:15.194Z,12.80
2024-02-16T12:31:42.524Z,12.80
2024-02-16T12:34:09.662Z,12.90
2024-02-16T12:36:37.192Z,13.00
2024-02-16T12:39:13.461Z,13.10
2024-02-16T12:41:40.371Z,13.20
2024-02-16T12:44:07.241Z,13.30
2024-02-16T12:46:34.095Z,13.20
2024-02-16T12:49:01.136Z,13.30
2024-02-16T12:51:28.517Z,13.20
2024-02-16T12:53:55.605Z,13.20
2024-02-16T12:56:22.704Z,13.10
2024-02-16T12:58:49.486Z,13.10
2024-02-16T13:01:25.716Z,13.20
2024-02-16T13:03:53.610Z,13.20
2024-02-16T13:06:22.327Z,13.30
2024-02-16T13:08:51.729Z,13.30
2024-02-16T13:11:18.563Z,13.30
2024-02-16T13:13:45.345Z,13.30
2024-02-16T13:16:12.194Z,13.40
2024-02-16T13:18:39.144Z,13.40
2024-02-16T13:21:06.141Z,13.50
2024-02-16T13:23:32.983Z,13.50
2024-02-16T13:25:59.795Z,13.50
2024-02-16T13:28:26.682Z,13.50
2024-02-16T13:30:53.578Z,13.50
2024-02-16T13:33:20.544Z,13.50
2024-02-16T13:35:47.389Z,13.60
2024-02-16T13:38:15.289Z,13.70
2024-02-16T13:40:43.972Z,13.70
2024-02-16T13:43:10.875Z,13.60
2024-02-16T13:45:50.073Z,13.60
2024-02-16T13:48:16.933Z,13.70
2024-02-16T13:50:47.958Z,13.70
2024-02-16T13:53:17.655Z,13.70
2024-02-16T13:55:46.987Z,13.80
2024-02-16T13:58:13.918Z,13.70
2024-02-16T14:00:41.357Z,13.70
2024-02-16T14:03:12.739Z,13.60
2024-02-16T14:05:39.909Z,13.60
2024-02-16T14:08:09.417Z,13.60
2024-02-16T14:10:36.943Z,13.60
2024-02-16T14:13:04.255Z,13.60
2024-02-16T14:15:33.098Z,13.50
2024-02-16T14:18:06.155Z,13.40
2024-02-16T14:20:38.335Z,13.40
2024-02-16T14:23:05.355Z,13.40
2024-02-16T14:25:32.535Z,13.40
2024-02-16T14:27:59.614Z,13.40
2024-02-16T14:30:26.538Z,13.50
2024-02-16T14:32:54.871Z,13.50
2024-02-16T14:35:23.632Z,13.50
2024-02-16T14:37:50.942Z,13.50
2024-02-16T14:40:18.174Z,13.40
2024-02-16T14:42:45.009Z,13.40
2024-02-16T14:45:20.542Z,13.40
2024-02-16T14:47:48.844Z,13.40
2024-02-16T14:50:15.748Z,13.30
2024-02-16T14:52:43.216Z,13.20
2024-02-16T14:55:11.511Z,13.20
2024-02-16T14:57:42.200Z,13.20
2024-02-16T15:00:12.935Z,13.20
2024-02-16T15:02:40.078Z,13.20
2024-02-16T15:05:07.602Z,13.20
2024-02-16T15:07:34.825Z,13.10
2024-02-16T15:10:01.939Z,13.00
2024-02-16T15:12:29.528Z,13.10
2024-02-16T15:14:57.095Z,13.10
2024-02-16T15:17:23.985Z,13.20
2024-02-16T15:19:52.354Z,13.10
2024-02-16T15:22:19.505Z,13.10
2024-02-16T15:24:46.452Z,13.10
2024-02-16T15:27:13.493Z,13.00
2024-02-16T15:29:40.810Z,13.00
2024-02-16T15:32:10.064Z,13.00
2024-02-16T15:34:37.346Z,12.90
2024-02-16T15:37:05.072Z,12.90
2024-02-16T15:39:32.106Z,12.80
2024-02-16T15:41:59.386Z,12.80
2024-02-16T15:44:26.978Z,12.80
2024-02-16T15:46:54.618Z,12.80
2024-02-16T15:49:21.658Z,12.80
2024-02-16T15:51:48.623Z,12.80
2024-02-16T15:54:15.714Z,12.70
2024-02-16T15:56:42.598Z,12.70
2024-02-16T15:59:09.415Z,12.80
2024-02-16T16:01:36.611Z,12.70
2024-02-16T16:04:03.865Z,12.60
2024-02-16T16:06:30.944Z,12.50
2024-02-16T16:08:57.931Z,12.50
2024-02-16T16:11:25.040Z,12.50
2024-02-16T16:13:51.970Z,12.40
2024-02-16T16:16:18.801Z,12.40
2024-02-16T16:18:46.145Z,12.40
2024-02-16T16:21:13.792Z,12.40
2024-02-16T16:23:40.945Z,12.40
2024-02-16T16:26:08.752Z,12.30
2024-02-16T16:28:35.748Z,12.20
2024-02-16T16:31:02.518Z,12.10
2024-02-16T16:33:29.485Z,12.20
2024-02-16T16:35:56.618Z,12.20
2024-02-16T16:38:23.569Z,12.20
2024-02-16T16:40:50.423Z,12.20
2024-02-16T16:43:19.294Z,12.20
2024-02-16T16:45:46.114Z,12.20
2024-02-16T16:48:13.240Z,12.20
2024-02-16T16:50:41.095Z,12.10
2024-02-16T16:53:07.951Z,12.10
2024-02-16T16:55:34.880Z,12.00
2024-02-16T16:58:01.748Z,12.00
2024-02-16T17:00:28.735Z,11.90
2024-02-16T17:02:55.881Z,11.90
2024-02-16T17:05:22.841Z,11.90
2024-02-16T17:07:49.870Z,11.90
2024-02-16T17:10:17.274Z,11.90
2024-02-16T17:12:45.745Z,11.90
2024-02-16T17:15:19.694Z,11.90
2024-02-16T17:17:52.642Z,11.90
2024-02-16T17:20:25.101Z,11.80
2024-02-16T17:22:52.476Z,11.80
2024-02-16T17:25:20.825Z,11.80
2024-02-16T17:27:49.580Z,11.90
2024-02-16T17:30:20.458Z,11.90
2024-02-16T17:32:49.447Z,11.90
2024-02-16T17:35:17.355Z,11.80
2024-02-16T17:37:45.701Z,11.80
2024-02-16T17:40:13.374Z,11.70
2024-02-16T17:42:40.364Z,11.70
2024-02-16T17:45:07.837Z,11.70
2024-02-16T17:47:35.885Z,11.70
2024-02-16T17:50:03.223Z,11.80
2024-02-16T17:52:30.196Z,11.80
2024-02-16T17:54:57.040Z,11.70
2024-02-16T17:57:23.925Z,11.70
2024-02-16T17:59:51.140Z,11.70
2024-02-16T18:02:29.039Z,11.70
2024-02-16T18:05:05.256Z,11.70
2024-02-16T18:07:32.083Z,11.60
2024-02-16T18:09:59.125Z,11.70
2024-02-16T18:12:25.990Z,11.60
2024-02-16T18:14:52.898Z,11.60
2024-02-16T18:17:20.511Z,11.70
2024-02-16T18:19:47.502Z,11.70
2024-02-16T18:22:14.706Z,11.70
2024-02-16T18:24:42.779Z,11.60
2024-02-16T18:27:09.694Z,11.70
2024-02-16T18:29:36.800Z,11.70
2024-02-16T18:32:03.805Z,11.70
2024-02-16T18:34:30.735Z,11.70
2024-02-16T18:36:57.500Z,11.70
2024-02-16T18:39:25.784Z,11.70
2024-02-16T18:41:52.662Z,11.70
2024-02-16T18:44:20.117Z,11.70
2024-02-16T18:46:47.070Z,11.60
2024-02-16T18:49:14.014Z,11.60
2024-02-16T18:51:41.087Z,11.60
2024-02-16T18:54:10.536Z,11.60
2024-02-16T18:56:38.150Z,11.60
2024-02-16T18:59:09.414Z,11.60
2024-02-16T19:01:36.679Z,11.60
2024-02-16T19:04:06.903Z,11.60
2024-02-16T19:06:33.923Z,11.60
2024-02-16T19:09:01.149Z,11.60
2024-02-16T19:11:28.097Z,11.60
2024-02-16T19:13:55.537Z,11.60
2024-02-16T19:16:22.350Z,11.60
2024-02-16T19:18:49.335Z,11.60
2024-02-16T19:21:16.304Z,11.70
2024-02-16T19:23:43.208Z,11.60
2024-02-16T19:26:10.809Z,11.60
2024-02-16T19:28:40.600Z,11.60
2024-02-16T19:31:08.338Z,11.60
2024-02-16T19:33:36.616Z,11.50
2024-02-16T19:36:04.726Z,11.50
2024-02-16T19:38:32.725Z,11.50
2024-02-16T19:40:59.982Z,11.50
2024-02-16T19:43:29.195Z,11.50
2024-02-16T19:45:56.556Z,11.50
2024-02-16T19:48:23.531Z,11.50
2024-02-16T19:50:53.128Z,11.50
2024-02-16T19:53:19.948Z,11.50
2024-02-16T19:55:47.779Z,11.50
2024-02-16T19:58:14.847Z,11.50
2024-02-16T20:00:43.585Z,11.40
2024-02-16T20:03:10.613Z,11.40
2024-02-16T20:05:37.536Z,11.40
2024-02-16T20:08:05.567Z,11.40
2024-02-16T20:10:32.561Z,11.40
2024-02-16T20:12:59.488Z,11.40
2024-02-16T20:15:30.105Z,11.40
2024-02-16T20:17:58.169Z,11.40
2024-02-16T20:20:25.348Z,11.30
2024-02-16T20:22:52.151Z,11.30
2024-02-16T20:25:22.769Z,11.40
2024-02-16T20:27:54.168Z,11.40
2024-02-16T20:30:21.395Z,11.40
2024-02-16T20:32:51.658Z,11.40
2024-02-16T20:35:18.765Z,11.40
2024-02-16T20:37:46.746Z,11.40
2024-02-16T20:40:14.330Z,11.40
2024-02-16T20:42:41.686Z,11.50
2024-02-16T20:45:08.979Z,11.50
2024-02-16T20:47:36.782Z,11.50
2024-02-16T20:50:04.795Z,11.50
2024-02-16T20:52:31.852Z,11.40
2024-02-16T20:54:58.689Z,11.40
2024-02-16T20:57:25.582Z,11.50
2024-02-16T20:59:52.400Z,11.50
2024-02-16T21:02:20.672Z,11.40
2024-02-16T21:04:48.460Z,11.40
2024-02-16T21:07:15.651Z,11.40
2024-02-16T21:09:43.304Z,11.50
2024-02-16T21:12:10.670Z,11.50
2024-02-16T21:14:37.636Z,11.50
2024-02-16T21:17:04.656Z,11.50
2024-02-16T21:19:31.646Z,11.50
2024-02-16T21:21:58.702Z,11.40
2024-02-16T21:24:26.063Z,11.40
2024-02-16T21:26:52.936Z,11.40
2024-02-16T21:29:19.794Z,11.40
2024-02-16T21:31:46.773Z,11.40
2024-02-16T21:34:14.166Z,11.40
2024-02-16T21:36:44.546Z,11.40
2024-02-16T21:39:12.255Z,11.50
2024-02-16T21:41:39.755Z,11.50
2024-02-16T21:44:06.503Z,11.50
2024-02-16T21:46:34.071Z,11.50
2024-02-16T21:49:04.757Z,11.50
2024-02-16T21:51:38.259Z,11.50
2024-02-16T21:54:06.484Z,11.50
2024-02-16T21:56:33.808Z,11.50
2024-02-16T21:59:01.614Z,11.40
2024-02-16T22:01:28.975Z,11.50
2024-02-16T22:03:56.049Z,11.40
2024-02-16T22:06:23.669Z,11.50
2024-02-16T22:08:50.745Z,11.40
2024-02-16T22:11:17.752Z,11.40
2024-02-16T22:13:45.575Z,11.50
2024-02-16T22:16:15.562Z,11.40
2024-02-16T22:18:42.568Z,11.40
2024-02-16T22:21:09.483Z,11.40
2024-02-16T22:23:39.246Z,11.30
2024-02-16T22:26:06.388Z,11.20
2024-02-16T22:28:33.315Z,11.30
2024-02-16T22:31:00.785Z,11.30
2024-02-16T22:33:27.936Z,11.30
2024-02-16T22:35:55.167Z,11.30
2024-02-16T22:38:25.025Z,11.30
2024-02-16T22:40:51.897Z,11.30
2024-02-16T22:43:18.722Z,11.30
2024-02-16T22:45:45.823Z,11.30
2024-02-16T22:48:15.234Z,11.40
2024-02-16T22:50:42.996Z,11.40
2024-02-16T22:53:10.114Z,11.30
2024-02-16T22:55:39.685Z,11.30
2024-02-16T22:58:09.255Z,11.40
2024-02-16T23:00:41.403Z,11.40
2024-02-16T23:03:10.636Z,11.40
2024-02-16T23:05:40.558Z,11.50
2024-02-16T23:08:08.570Z,11.40
2024-02-16T23:10:35.756Z,11.50
2024-02-16T23:13:03.948Z,11.40
2024-02-16T23:15:31.282Z,11.40
2024-02-16T23:17:58.097Z,11.40
2024-02-16T23:20:24.904Z,11.40
2024-02-16T23:22:57.776Z,11.40
2024-02-16T23:25:24.578Z,11.40
2024-02-16T23:27:52.284Z,11.40
2024-02-16T23:30:19.771Z,11.40
2024-02-16T23:32:46.668Z,11.40
2024-02-16T23:35:13.445Z,11.40
2024-02-16T23:37:40.213Z,11.40
2024-02-16T23:40:07.850Z,11.40
2024-02-16T23:42:34.879Z,11.40
2024-02-16T23:45:02.309Z,11.40
2024-02-16T23:47:29.071Z,11.50
2024-02-16T23:49:55.877Z,11.40
2024-02-16T23:52:22.643Z,11.40
2024-02-16T23:54:49.394Z,11.40
2024-02-16T23:57:17.585Z,11.40
2024-02-16T23:59:44.409Z,11.40
